createdAt,value
2022-08-16T00:03:47.475Z,4.50
2022-08-16T00:08:52.485Z,4.20
2022-08-16T00:13:56.106Z,4.00
2022-08-16T00:19:01.438Z,3.80
2022-08-16T00:24:06.186Z,4.70
2022-08-16T00:29:17.464Z,4.50
2022-08-16T00:34:43.392Z,4.30
2022-08-16T00:39:57.581Z,4.17
2022-08-16T00:45:08.092Z,4.13
2022-08-16T00:50:14.477Z,4.30
2022-08-16T00:55:23.513Z,4.00
2022-08-16T01:00:28.937Z,4.60
2022-08-16T01:05:34.491Z,4.30
2022-08-16T01:10:38.487Z,4.50
2022-08-16T01:15:52.594Z,3.70
2022-08-16T01:21:12.700Z,4.47
2022-08-16T01:26:35.408Z,4.10
2022-08-16T01:31:42.743Z,4.60
2022-08-16T01:36:47.793Z,3.57
2022-08-16T01:42:07.786Z,3.90
2022-08-16T01:47:16.554Z,3.53
2022-08-16T01:52:29.341Z,4.63
2022-08-16T01:58:01.248Z,3.70
2022-08-16T02:03:05.168Z,4.10
2022-08-16T02:08:09.546Z,3.37
2022-08-16T02:13:34.956Z,4.27
2022-08-16T02:18:38.948Z,4.27
2022-08-16T02:23:43.771Z,4.07
2022-08-16T02:28:48.750Z,3.90
2022-08-16T02:33:56.313Z,4.10
2022-08-16T02:39:09.947Z,3.83
2022-08-16T02:44:15.429Z,4.40
2022-08-16T02:49:32.311Z,4.80
2022-08-16T02:54:48.631Z,3.53
2022-08-16T03:00:03.838Z,4.10
2022-08-16T03:05:26.513Z,3.30
2022-08-16T03:10:36.079Z,3.60
2022-08-16T03:15:45.368Z,3.67
2022-08-16T03:20:56.553Z,3.80
2022-08-16T03:26:00.793Z,3.70
2022-08-16T03:31:07.079Z,3.57
2022-08-16T03:36:30.190Z,3.63
2022-08-16T03:41:50.274Z,3.50
2022-08-16T03:46:58.857Z,3.47
2022-08-16T03:52:08.782Z,3.47
2022-08-16T03:57:15.714Z,3.87
2022-08-16T04:02:31.727Z,3.97
2022-08-16T04:07:38.602Z,3.30
2022-08-16T04:12:53.077Z,3.60
2022-08-16T04:18:01.992Z,3.73
2022-08-16T04:23:08.299Z,3.57
2022-08-16T04:28:29.715Z,3.30
2022-08-16T04:33:50.573Z,3.70
2022-08-16T04:38:58.799Z,4.00
2022-08-16T04:44:32.709Z,4.10
2022-08-16T04:49:43.801Z,4.10
2022-08-16T04:54:50.627Z,3.70
2022-08-16T04:59:54.396Z,3.80
2022-08-16T05:04:59.421Z,4.30
2022-08-16T05:10:05.341Z,4.33
2022-08-16T05:15:24.611Z,4.30
2022-08-16T05:20:38.622Z,4.40
2022-08-16T05:25:54.163Z,4.17
2022-08-16T05:30:58.237Z,4.80
2022-08-16T05:36:14.272Z,4.70
2022-08-16T05:41:26.829Z,11.50
2022-08-16T05:46:31.455Z,6.30
2022-08-16T05:51:57.085Z,4.50
2022-08-16T05:57:02.039Z,4.00
2022-08-16T06:02:08.587Z,3.60
2022-08-16T06:07:24.896Z,3.10
2022-08-16T06:12:38.254Z,2.90
2022-08-16T06:17:44.651Z,3.00
2022-08-16T06:23:04.107Z,3.03
2022-08-16T06:28:35.658Z,2.90
2022-08-16T06:33:41.691Z,3.23
2022-08-16T06:38:56.013Z,3.03
2022-08-16T06:44:20.952Z,3.03
2022-08-16T06:49:27.321Z,2.70
2022-08-16T06:54:34.358Z,2.77
2022-08-16T06:59:48.579Z,2.70
2022-08-16T07:04:58.227Z,2.70
2022-08-16T07:10:08.516Z,2.17
2022-08-16T07:15:17.142Z,2.60
2022-08-16T07:20:29.840Z,2.47
2022-08-16T07:25:42.281Z,2.40
2022-08-16T07:30:48.862Z,2.20
2022-08-16T07:36:21.719Z,1.90
2022-08-16T07:41:27.864Z,4.73
2022-08-16T07:46:38.589Z,2.03
2022-08-16T07:52:20.534Z,2.10
2022-08-16T07:57:27.644Z,1.80
2022-08-16T08:02:32.641Z,1.73
2022-08-16T08:07:37.682Z,2.57
2022-08-16T08:12:51.079Z,2.23
2022-08-16T08:18:01.638Z,2.13
2022-08-16T08:23:23.049Z,7.20
2022-08-16T08:28:30.886Z,2.00
2022-08-16T08:33:47.193Z,2.47
2022-08-16T08:38:52.501Z,2.60
2022-08-16T08:43:59.006Z,1.70
2022-08-16T08:49:03.584Z,2.10
2022-08-16T08:54:18.605Z,2.10
2022-08-16T08:59:28.563Z,1.93
2022-08-16T09:04:34.181Z,1.63
2022-08-16T09:09:41.275Z,2.10
2022-08-16T09:14:50.999Z,2.00
2022-08-16T09:20:02.850Z,2.30
2022-08-16T09:25:11.385Z,2.00
2022-08-16T09:30:33.286Z,3.10
2022-08-16T09:35:39.466Z,2.47
2022-08-16T09:40:48.415Z,1.90
2022-08-16T09:45:54.526Z,2.37
2022-08-16T09:50:58.697Z,2.20
2022-08-16T09:56:04.730Z,2.53
2022-08-16T10:01:16.566Z,2.40
2022-08-16T10:06:21.623Z,2.03
2022-08-16T10:11:50.303Z,2.53
2022-08-16T10:16:59.610Z,2.20
2022-08-16T10:22:05.883Z,2.87
2022-08-16T10:27:26.945Z,2.33
2022-08-16T10:32:35.320Z,2.10
2022-08-16T10:37:39.029Z,2.43
2022-08-16T10:42:42.822Z,2.40
2022-08-16T10:48:00.502Z,2.00
2022-08-16T10:53:07.773Z,2.20
2022-08-16T10:58:17.052Z,1.97
2022-08-16T11:03:42.949Z,2.10
2022-08-16T11:08:46.482Z,2.40
2022-08-16T11:14:06.154Z,2.37
2022-08-16T11:19:17.026Z,2.27
2022-08-16T11:24:42.598Z,2.73
2022-08-16T11:29:44.749Z,2.27
2022-08-16T11:35:10.189Z,3.20
2022-08-16T11:40:14.595Z,2.10
2022-08-16T11:45:23.892Z,2.00
2022-08-16T11:50:33.539Z,2.00
2022-08-16T11:55:38.970Z,1.80
2022-08-16T12:00:51.482Z,1.90
2022-08-16T12:05:57.868Z,1.70
2022-08-16T12:11:02.365Z,1.87
2022-08-16T12:16:09.086Z,2.00
2022-08-16T12:21:14.942Z,1.80
2022-08-16T12:26:18.720Z,1.63
2022-08-16T12:31:23.257Z,1.80
2022-08-16T12:36:29.963Z,2.00
2022-08-16T12:41:34.915Z,2.23
2022-08-16T12:46:38.757Z,2.10
2022-08-16T14:01:01.691Z,1.63
2022-08-16T14:06:14.183Z,2.00
2022-08-16T14:16:45.034Z,1.90
2022-08-16T14:22:13.727Z,1.83
2022-08-16T14:27:42.371Z,1.80
2022-08-16T14:38:44.596Z,2.27
2022-08-16T14:43:56.583Z,1.67
2022-08-16T14:49:04.718Z,2.23
2022-08-16T14:54:15.082Z,1.80
2022-08-16T14:59:19.502Z,2.47
2022-08-16T15:04:34.364Z,1.80
2022-08-16T15:10:00.415Z,2.10
2022-08-16T15:15:13.187Z,2.10
2022-08-16T15:20:22.348Z,1.50
2022-08-16T15:25:29.734Z,1.60
2022-08-16T15:30:59.850Z,1.80
2022-08-16T15:36:02.363Z,1.80
2022-08-16T15:41:06.952Z,2.10
2022-08-16T15:46:34.924Z,1.90
2022-08-16T15:51:50.668Z,1.73
2022-08-16T15:57:00.331Z,1.90
2022-08-16T16:02:08.468Z,1.60
2022-08-16T16:07:15.768Z,1.70
2022-08-16T16:12:51.202Z,1.60
2022-08-16T16:17:50.652Z,1.90
2022-08-16T16:22:57.971Z,1.83
2022-08-16T16:28:02.937Z,2.00
2022-08-16T16:33:22.200Z,1.60
2022-08-16T16:38:30.984Z,1.70
2022-08-16T16:43:35.853Z,2.47
2022-08-16T16:48:39.894Z,1.90
2022-08-16T16:53:55.739Z,2.27
2022-08-16T16:59:01.741Z,4.43
2022-08-16T17:04:13.330Z,2.37
2022-08-16T17:09:25.147Z,2.00
2022-08-16T17:14:33.001Z,2.30
2022-08-16T17:19:40.918Z,1.70
2022-08-16T17:24:50.214Z,2.00
2022-08-16T17:29:55.263Z,2.30
2022-08-16T17:35:03.043Z,1.70
2022-08-16T17:40:25.801Z,1.80
2022-08-16T17:45:38.425Z,2.20
2022-08-16T17:50:43.191Z,2.33
2022-08-16T17:55:50.518Z,2.30
2022-08-16T18:00:56.746Z,2.20
2022-08-16T18:06:00.287Z,1.70
2022-08-16T18:11:05.395Z,2.67
2022-08-16T18:16:11.848Z,2.43
2022-08-16T18:21:33.673Z,2.90
2022-08-16T18:26:39.838Z,2.77
2022-08-16T18:31:43.828Z,2.20
2022-08-16T18:36:47.745Z,1.63
2022-08-16T18:41:53.055Z,1.90
2022-08-16T18:46:56.848Z,2.60
2022-08-16T18:52:01.489Z,2.70
2022-08-16T18:57:08.085Z,2.23
2022-08-16T19:02:56.976Z,2.40
2022-08-16T19:07:35.453Z,2.20
2022-08-16T19:12:52.372Z,2.53
2022-08-16T19:17:56.501Z,2.60
2022-08-16T19:23:06.323Z,3.00
2022-08-16T19:28:46.672Z,2.87
2022-08-16T19:33:53.670Z,2.23
2022-08-16T19:38:58.590Z,2.57
2022-08-16T19:44:10.996Z,3.10
2022-08-16T19:49:15.934Z,2.80
2022-08-16T19:54:20.441Z,2.50
2022-08-16T19:59:39.340Z,2.57
2022-08-16T20:04:44.952Z,2.53
2022-08-16T20:09:49.519Z,2.43
2022-08-16T20:14:56.167Z,2.20
2022-08-16T20:20:00.359Z,3.20
2022-08-16T20:25:07.637Z,2.40
2022-08-16T20:30:16.779Z,2.90
2022-08-16T20:35:24.206Z,2.53
2022-08-16T20:40:35.135Z,2.70
2022-08-16T20:45:43.048Z,2.70
2022-08-16T20:50:47.977Z,2.70
2022-08-16T20:55:51.521Z,2.70
2022-08-16T21:00:59.688Z,2.90
2022-08-16T21:06:03.939Z,2.50
2022-08-16T21:11:08.282Z,2.93
2022-08-16T21:16:13.061Z,3.00
2022-08-16T21:21:16.723Z,3.03
2022-08-16T21:26:20.215Z,2.50
2022-08-16T21:31:25.294Z,3.30
2022-08-16T21:36:35.045Z,2.93
2022-08-16T21:41:39.903Z,2.73
2022-08-16T21:46:44.914Z,3.30
2022-08-16T21:51:48.326Z,2.73
2022-08-16T21:56:51.904Z,2.87
2022-08-16T22:01:57.056Z,2.77
2022-08-16T22:07:00.814Z,3.40
2022-08-16T22:12:05.072Z,2.67
2022-08-16T22:17:10.308Z,2.87
2022-08-16T22:22:14.140Z,3.13
2022-08-16T22:27:17.637Z,3.17
2022-08-16T22:32:23.113Z,3.27
2022-08-16T22:37:27.022Z,3.20
2022-08-16T22:42:30.975Z,2.83
2022-08-16T22:47:36.079Z,2.90
2022-08-16T22:53:00.359Z,2.83
2022-08-16T22:58:05.138Z,2.97
2022-08-16T23:03:13.568Z,3.07
2022-08-16T23:08:38.434Z,3.53
2022-08-16T23:13:49.868Z,2.90
2022-08-16T23:18:58.899Z,2.87
2022-08-16T23:24:02.605Z,3.30
2022-08-16T23:29:22.239Z,3.27
2022-08-16T23:34:30.129Z,3.00
2022-08-16T23:39:33.685Z,3.33
2022-08-16T23:44:56.742Z,3.27
2022-08-16T23:50:04.006Z,2.80
2022-08-16T23:55:09.095Z,3.70
